sensor_id;sensor_type;location;lat;lon;timestamp;temperature;humidity
2389;DHT22;1205;47.984;7.668;2023-02-15T00:00:42;1.40;99.90
2389;DHT22;1205;47.984;7.668;2023-02-15T00:03:07;1.40;99.90
2389;DHT22;1205;47.984;7.668;2023-02-15T00:05:33;1.40;99.90
2389;DHT22;1205;47.984;7.668;2023-02-15T00:07:58;1.30;99.90
2389;DHT22;1205;47.984;7.668;2023-02-15T00:10:24;1.40;99.90
2389;DHT22;1205;47.984;7.668;2023-02-15T00:12:49;1.50;99.90
2389;DHT22;1205;47.984;7.668;2023-02-15T00:15:15;1.40;99.90
2389;DHT22;1205;47.984;7.668;2023-02-15T00:17:41;1.40;99.90
2389;DHT22;1205;47.984;7.668;2023-02-15T00:20:06;1.40;99.90
2389;DHT22;1205;47.984;7.668;2023-02-15T00:22:32;1.40;99.90
2389;DHT22;1205;47.984;7.668;2023-02-15T00:24:58;1.30;99.90
2389;DHT22;1205;47.984;7.668;2023-02-15T00:27:23;1.30;99.90
2389;DHT22;1205;47.984;7.668;2023-02-15T00:29:49;1.20;99.90
2389;DHT22;1205;47.984;7.668;2023-02-15T00:32:14;1.20;99.90
2389;DHT22;1205;47.984;7.668;2023-02-15T00:34:40;1.20;99.90
2389;DHT22;1205;47.984;7.668;2023-02-15T00:37:05;1.10;99.90
2389;DHT22;1205;47.984;7.668;2023-02-15T00:39:31;1.20;99.90
2389;DHT22;1205;47.984;7.668;2023-02-15T00:41:56;1.20;99.90
2389;DHT22;1205;47.984;7.668;2023-02-15T00:44:22;1.30;99.90
2389;DHT22;1205;47.984;7.668;2023-02-15T00:46:47;1.40;99.90
2389;DHT22;1205;47.984;7.668;2023-02-15T00:49:13;1.40;99.90
2389;DHT22;1205;47.984;7.668;2023-02-15T00:51:39;1.50;99.90
2389;DHT22;1205;47.984;7.668;2023-02-15T00:54:05;1.40;99.90
2389;DHT22;1205;47.984;7.668;2023-02-15T00:56:31;1.40;99.90
2389;DHT22;1205;47.984;7.668;2023-02-15T00:58:56;1.40;99.90
2389;DHT22;1205;47.984;7.668;2023-02-15T01:01:22;1.30;99.90
2389;DHT22;1205;47.984;7.668;2023-02-15T01:03:49;1.20;99.90
2389;DHT22;1205;47.984;7.668;2023-02-15T01:06:15;1.20;99.90
2389;DHT22;1205;47.984;7.668;2023-02-15T01:08:41;1.30;99.90
2389;DHT22;1205;47.984;7.668;2023-02-15T01:11:09;1.30;99.90
2389;DHT22;1205;47.984;7.668;2023-02-15T01:13:35;1.10;99.90
2389;DHT22;1205;47.984;7.668;2023-02-15T01:16:02;1.10;99.90
2389;DHT22;1205;47.984;7.668;2023-02-15T01:18:27;1.00;99.90
2389;DHT22;1205;47.984;7.668;2023-02-15T01:20:53;1.00;99.90
2389;DHT22;1205;47.984;7.668;2023-02-15T01:23:19;0.90;99.90
2389;DHT22;1205;47.984;7.668;2023-02-15T01:25:44;0.90;99.90
2389;DHT22;1205;47.984;7.668;2023-02-15T01:28:10;0.90;99.90
2389;DHT22;1205;47.984;7.668;2023-02-15T01:30:36;1.00;99.90
2389;DHT22;1205;47.984;7.668;2023-02-15T01:33:01;1.00;99.90
2389;DHT22;1205;47.984;7.668;2023-02-15T01:35:28;1.00;99.90
2389;DHT22;1205;47.984;7.668;2023-02-15T01:37:54;0.90;99.90
2389;DHT22;1205;47.984;7.668;2023-02-15T01:40:20;0.90;99.90
2389;DHT22;1205;47.984;7.668;2023-02-15T01:42:49;1.00;99.90
2389;DHT22;1205;47.984;7.668;2023-02-15T01:45:28;1.00;99.90
2389;DHT22;1205;47.984;7.668;2023-02-15T01:51:02;1.10;99.90
2389;DHT22;1205;47.984;7.668;2023-02-15T01:53:34;1.10;99.90
2389;DHT22;1205;47.984;7.668;2023-02-15T01:56:06;1.10;99.90
2389;DHT22;1205;47.984;7.668;2023-02-15T01:58:34;1.10;99.90
2389;DHT22;1205;47.984;7.668;2023-02-15T02:01:01;1.00;99.90
2389;DHT22;1205;47.984;7.668;2023-02-15T02:06:36;1.00;99.90
2389;DHT22;1205;47.984;7.668;2023-02-15T02:09:03;1.00;99.90
2389;DHT22;1205;47.984;7.668;2023-02-15T02:11:29;1.00;99.90
2389;DHT22;1205;47.984;7.668;2023-02-15T02:13:55;1.10;99.90
2389;DHT22;1205;47.984;7.668;2023-02-15T02:16:26;1.10;99.90
2389;DHT22;1205;47.984;7.668;2023-02-15T02:19:19;1.10;99.90
2389;DHT22;1205;47.984;7.668;2023-02-15T02:24:54;1.10;99.90
2389;DHT22;1205;47.984;7.668;2023-02-15T02:27:41;1.10;99.90
2389;DHT22;1205;47.984;7.668;2023-02-15T02:33:08;1.20;99.90
2389;DHT22;1205;47.984;7.668;2023-02-15T02:38:32;1.20;99.90
2389;DHT22;1205;47.984;7.668;2023-02-15T02:46:54;1.20;99.90
2389;DHT22;1205;47.984;7.668;2023-02-15T02:49:37;1.20;99.90
2389;DHT22;1205;47.984;7.668;2023-02-15T02:52:05;1.10;99.90
2389;DHT22;1205;47.984;7.668;2023-02-15T02:54:34;0.60;99.90
2389;DHT22;1205;47.984;7.668;2023-02-15T02:57:03;0.60;99.90
2389;DHT22;1205;47.984;7.668;2023-02-15T02:59:37;0.70;99.90
2389;DHT22;1205;47.984;7.668;2023-02-15T03:02:14;0.80;99.90
2389;DHT22;1205;47.984;7.668;2023-02-15T03:04:45;0.70;99.90
2389;DHT22;1205;47.984;7.668;2023-02-15T03:07:19;0.80;99.90
2389;DHT22;1205;47.984;7.668;2023-02-15T03:09:50;0.80;99.90
2389;DHT22;1205;47.984;7.668;2023-02-15T03:12:20;0.90;99.90
2389;DHT22;1205;47.984;7.668;2023-02-15T03:14:53;0.80;99.90
2389;DHT22;1205;47.984;7.668;2023-02-15T03:17:22;0.90;99.90
2389;DHT22;1205;47.984;7.668;2023-02-15T03:19:51;0.90;99.90
2389;DHT22;1205;47.984;7.668;2023-02-15T03:24:56;1.00;99.90
2389;DHT22;1205;47.984;7.668;2023-02-15T03:27:28;1.00;99.90
2389;DHT22;1205;47.984;7.668;2023-02-15T03:29:58;1.10;99.90
2389;DHT22;1205;47.984;7.668;2023-02-15T03:32:26;1.20;99.90
2389;DHT22;1205;47.984;7.668;2023-02-15T03:34:53;1.20;99.90
2389;DHT22;1205;47.984;7.668;2023-02-15T03:42:25;1.10;99.90
2389;DHT22;1205;47.984;7.668;2023-02-15T03:45:08;1.10;99.90
2389;DHT22;1205;47.984;7.668;2023-02-15T03:47:39;1.20;99.90
2389;DHT22;1205;47.984;7.668;2023-02-15T03:50:26;1.20;99.90
2389;DHT22;1205;47.984;7.668;2023-02-15T03:53:14;1.20;99.90
2389;DHT22;1205;47.984;7.668;2023-02-15T03:55:41;1.20;99.90
2389;DHT22;1205;47.984;7.668;2023-02-15T03:58:11;1.30;99.90
2389;DHT22;1205;47.984;7.668;2023-02-15T04:00:58;1.20;99.90
2389;DHT22;1205;47.984;7.668;2023-02-15T04:03:44;1.20;99.90
2389;DHT22;1205;47.984;7.668;2023-02-15T04:06:11;1.20;99.90
2389;DHT22;1205;47.984;7.668;2023-02-15T04:08:36;1.20;99.90
2389;DHT22;1205;47.984;7.668;2023-02-15T04:11:20;1.20;99.90
2389;DHT22;1205;47.984;7.668;2023-02-15T04:13:46;1.10;99.90
2389;DHT22;1205;47.984;7.668;2023-02-15T04:16:12;1.10;99.90
2389;DHT22;1205;47.984;7.668;2023-02-15T04:18:42;1.10;99.90
2389;DHT22;1205;47.984;7.668;2023-02-15T04:21:28;1.10;99.90
2389;DHT22;1205;47.984;7.668;2023-02-15T04:24:13;1.20;99.90
2389;DHT22;1205;47.984;7.668;2023-02-15T04:26:58;1.20;99.90
2389;DHT22;1205;47.984;7.668;2023-02-15T04:29:25;1.20;99.90
2389;DHT22;1205;47.984;7.668;2023-02-15T04:31:52;1.20;99.90
2389;DHT22;1205;47.984;7.668;2023-02-15T04:34:18;1.10;99.90
2389;DHT22;1205;47.984;7.668;2023-02-15T04:36:43;1.10;99.90
2389;DHT22;1205;47.984;7.668;2023-02-15T04:39:12;1.10;99.90
2389;DHT22;1205;47.984;7.668;2023-02-15T04:41:37;1.20;99.90
2389;DHT22;1205;47.984;7.668;2023-02-15T04:44:03;1.10;99.90
2389;DHT22;1205;47.984;7.668;2023-02-15T04:46:29;1.10;99.90
2389;DHT22;1205;47.984;7.668;2023-02-15T04:48:56;1.10;99.90
2389;DHT22;1205;47.984;7.668;2023-02-15T04:51:21;1.10;99.90
2389;DHT22;1205;47.984;7.668;2023-02-15T04:53:47;1.10;99.90
2389;DHT22;1205;47.984;7.668;2023-02-15T04:56:13;1.00;99.90
2389;DHT22;1205;47.984;7.668;2023-02-15T04:58:39;1.10;99.90
2389;DHT22;1205;47.984;7.668;2023-02-15T05:01:09;1.10;99.90
2389;DHT22;1205;47.984;7.668;2023-02-15T05:03:36;1.00;99.90
2389;DHT22;1205;47.984;7.668;2023-02-15T05:06:02;1.00;99.90
2389;DHT22;1205;47.984;7.668;2023-02-15T05:08:28;1.00;99.90
2389;DHT22;1205;47.984;7.668;2023-02-15T05:10:54;1.00;99.90
2389;DHT22;1205;47.984;7.668;2023-02-15T05:13:19;1.00;99.90
2389;DHT22;1205;47.984;7.668;2023-02-15T05:15:49;1.00;99.90
2389;DHT22;1205;47.984;7.668;2023-02-15T05:18:15;1.00;99.90
2389;DHT22;1205;47.984;7.668;2023-02-15T05:20:41;0.90;99.90
2389;DHT22;1205;47.984;7.668;2023-02-15T05:23:06;1.00;99.90
2389;DHT22;1205;47.984;7.668;2023-02-15T05:25:32;1.00;99.90
2389;DHT22;1205;47.984;7.668;2023-02-15T05:28:16;1.00;99.90
2389;DHT22;1205;47.984;7.668;2023-02-15T05:30:45;1.00;99.90
2389;DHT22;1205;47.984;7.668;2023-02-15T05:33:11;0.90;99.90
2389;DHT22;1205;47.984;7.668;2023-02-15T05:35:36;0.80;99.90
2389;DHT22;1205;47.984;7.668;2023-02-15T05:38:02;0.80;99.90
2389;DHT22;1205;47.984;7.668;2023-02-15T05:40:28;0.90;99.90
2389;DHT22;1205;47.984;7.668;2023-02-15T05:42:53;0.80;99.90
2389;DHT22;1205;47.984;7.668;2023-02-15T05:45:19;0.80;99.90
2389;DHT22;1205;47.984;7.668;2023-02-15T05:47:44;0.90;99.90
2389;DHT22;1205;47.984;7.668;2023-02-15T05:50:10;0.90;99.90
2389;DHT22;1205;47.984;7.668;2023-02-15T05:52:36;0.90;99.90
2389;DHT22;1205;47.984;7.668;2023-02-15T05:55:03;0.90;99.90
2389;DHT22;1205;47.984;7.668;2023-02-15T05:57:29;0.90;99.90
2389;DHT22;1205;47.984;7.668;2023-02-15T05:59:55;0.90;99.90
2389;DHT22;1205;47.984;7.668;2023-02-15T06:02:21;0.90;99.90
2389;DHT22;1205;47.984;7.668;2023-02-15T06:04:46;0.80;99.90
2389;DHT22;1205;47.984;7.668;2023-02-15T06:07:12;0.90;99.90
2389;DHT22;1205;47.984;7.668;2023-02-15T06:09:38;0.90;99.90
2389;DHT22;1205;47.984;7.668;2023-02-15T06:12:03;0.90;99.90
2389;DHT22;1205;47.984;7.668;2023-02-15T06:14:29;0.90;99.90
2389;DHT22;1205;47.984;7.668;2023-02-15T06:16:54;0.80;99.90
2389;DHT22;1205;47.984;7.668;2023-02-15T06:19:20;0.90;99.90
2389;DHT22;1205;47.984;7.668;2023-02-15T06:21:46;0.90;99.90
2389;DHT22;1205;47.984;7.668;2023-02-15T06:24:12;0.90;99.90
2389;DHT22;1205;47.984;7.668;2023-02-15T06:26:37;0.90;99.90
2389;DHT22;1205;47.984;7.668;2023-02-15T06:29:03;0.90;99.90
2389;DHT22;1205;47.984;7.668;2023-02-15T06:31:29;0.90;99.90
2389;DHT22;1205;47.984;7.668;2023-02-15T06:33:54;0.90;99.90
2389;DHT22;1205;47.984;7.668;2023-02-15T06:36:27;0.90;99.90
2389;DHT22;1205;47.984;7.668;2023-02-15T06:38:54;0.80;99.90
2389;DHT22;1205;47.984;7.668;2023-02-15T06:41:20;0.80;99.90
2389;DHT22;1205;47.984;7.668;2023-02-15T06:43:45;0.80;99.90
2389;DHT22;1205;47.984;7.668;2023-02-15T06:46:11;0.80;99.90
2389;DHT22;1205;47.984;7.668;2023-02-15T06:48:36;0.80;99.90
2389;DHT22;1205;47.984;7.668;2023-02-15T06:51:02;0.80;99.90
2389;DHT22;1205;47.984;7.668;2023-02-15T06:53:27;0.70;99.90
2389;DHT22;1205;47.984;7.668;2023-02-15T06:56:00;0.70;99.90
2389;DHT22;1205;47.984;7.668;2023-02-15T06:58:26;0.80;99.90
2389;DHT22;1205;47.984;7.668;2023-02-15T07:00:51;0.80;99.90
2389;DHT22;1205;47.984;7.668;2023-02-15T07:03:17;0.80;99.90
2389;DHT22;1205;47.984;7.668;2023-02-15T07:05:43;0.80;99.90
2389;DHT22;1205;47.984;7.668;2023-02-15T07:08:09;0.90;99.90
2389;DHT22;1205;47.984;7.668;2023-02-15T07:10:35;0.80;99.90
2389;DHT22;1205;47.984;7.668;2023-02-15T07:13:00;0.70;99.90
2389;DHT22;1205;47.984;7.668;2023-02-15T07:15:26;0.70;99.90
2389;DHT22;1205;47.984;7.668;2023-02-15T07:17:52;0.70;99.90
2389;DHT22;1205;47.984;7.668;2023-02-15T07:20:22;0.70;99.90
2389;DHT22;1205;47.984;7.668;2023-02-15T07:22:49;0.70;99.90
2389;DHT22;1205;47.984;7.668;2023-02-15T07:25:14;0.60;99.90
2389;DHT22;1205;47.984;7.668;2023-02-15T07:27:40;0.60;99.90
2389;DHT22;1205;47.984;7.668;2023-02-15T07:30:10;0.70;99.90
2389;DHT22;1205;47.984;7.668;2023-02-15T07:32:37;0.60;99.90
2389;DHT22;1205;47.984;7.668;2023-02-15T07:35:22;0.60;99.90
2389;DHT22;1205;47.984;7.668;2023-02-15T07:37:48;0.60;99.90
2389;DHT22;1205;47.984;7.668;2023-02-15T07:40:13;0.60;99.90
2389;DHT22;1205;47.984;7.668;2023-02-15T07:42:39;0.60;99.90
2389;DHT22;1205;47.984;7.668;2023-02-15T07:45:05;0.60;99.90
2389;DHT22;1205;47.984;7.668;2023-02-15T07:47:30;0.70;99.90
2389;DHT22;1205;47.984;7.668;2023-02-15T07:49:56;0.70;99.90
2389;DHT22;1205;47.984;7.668;2023-02-15T07:52:21;0.80;99.90
2389;DHT22;1205;47.984;7.668;2023-02-15T07:54:47;0.90;99.90
2389;DHT22;1205;47.984;7.668;2023-02-15T07:57:12;0.90;99.90
2389;DHT22;1205;47.984;7.668;2023-02-15T07:59:38;0.90;99.90
2389;DHT22;1205;47.984;7.668;2023-02-15T08:02:08;0.90;99.90
2389;DHT22;1205;47.984;7.668;2023-02-15T08:04:34;0.90;99.90
2389;DHT22;1205;47.984;7.668;2023-02-15T08:07:00;0.90;99.90
2389;DHT22;1205;47.984;7.668;2023-02-15T08:09:25;1.00;99.90
2389;DHT22;1205;47.984;7.668;2023-02-15T08:11:51;1.10;99.90
2389;DHT22;1205;47.984;7.668;2023-02-15T08:14:21;1.10;99.90
2389;DHT22;1205;47.984;7.668;2023-02-15T08:16:51;1.20;99.90
2389;DHT22;1205;47.984;7.668;2023-02-15T08:19:23;0.70;99.90
2389;DHT22;1205;47.984;7.668;2023-02-15T08:22:00;0.90;99.90
2389;DHT22;1205;47.984;7.668;2023-02-15T08:24:28;1.10;99.90
2389;DHT22;1205;47.984;7.668;2023-02-15T08:26:55;1.10;99.90
2389;DHT22;1205;47.984;7.668;2023-02-15T08:29:23;1.20;99.90
2389;DHT22;1205;47.984;7.668;2023-02-15T08:31:50;1.20;99.90
2389;DHT22;1205;47.984;7.668;2023-02-15T08:34:18;1.30;99.90
2389;DHT22;1205;47.984;7.668;2023-02-15T08:36:44;1.30;99.90
2389;DHT22;1205;47.984;7.668;2023-02-15T08:39:11;1.30;99.90
2389;DHT22;1205;47.984;7.668;2023-02-15T08:41:38;1.30;99.90
2389;DHT22;1205;47.984;7.668;2023-02-15T08:44:06;1.40;99.90
2389;DHT22;1205;47.984;7.668;2023-02-15T08:46:35;1.40;99.90
2389;DHT22;1205;47.984;7.668;2023-02-15T08:49:01;2.40;99.90
2389;DHT22;1205;47.984;7.668;2023-02-15T08:51:32;3.30;99.90
2389;DHT22;1205;47.984;7.668;2023-02-15T08:54:00;3.30;99.90
2389;DHT22;1205;47.984;7.668;2023-02-15T08:56:28;2.60;99.90
2389;DHT22;1205;47.984;7.668;2023-02-15T08:58:55;2.30;99.90
2389;DHT22;1205;47.984;7.668;2023-02-15T09:01:24;2.00;99.90
2389;DHT22;1205;47.984;7.668;2023-02-15T09:03:51;2.10;99.90
2389;DHT22;1205;47.984;7.668;2023-02-15T09:06:20;1.80;99.90
2389;DHT22;1205;47.984;7.668;2023-02-15T09:08:46;1.80;99.90
2389;DHT22;1205;47.984;7.668;2023-02-15T09:11:13;1.90;99.90
2389;DHT22;1205;47.984;7.668;2023-02-15T09:13:41;3.10;99.90
2389;DHT22;1205;47.984;7.668;2023-02-15T09:16:08;3.80;99.90
2389;DHT22;1205;47.984;7.668;2023-02-15T09:18:37;4.10;99.90
2389;DHT22;1205;47.984;7.668;2023-02-15T09:21:08;4.40;99.90
2389;DHT22;1205;47.984;7.668;2023-02-15T09:23:35;3.90;99.90
2389;DHT22;1205;47.984;7.668;2023-02-15T09:26:05;3.30;99.90
2389;DHT22;1205;47.984;7.668;2023-02-15T09:28:31;3.00;99.90
2389;DHT22;1205;47.984;7.668;2023-02-15T09:31:11;2.80;99.90
2389;DHT22;1205;47.984;7.668;2023-02-15T09:33:38;2.40;99.90
2389;DHT22;1205;47.984;7.668;2023-02-15T09:36:05;2.30;99.90
2389;DHT22;1205;47.984;7.668;2023-02-15T09:38:31;2.30;99.90
2389;DHT22;1205;47.984;7.668;2023-02-15T09:41:14;2.30;99.90
2389;DHT22;1205;47.984;7.668;2023-02-15T09:44:09;2.40;99.90
2389;DHT22;1205;47.984;7.668;2023-02-15T09:47:11;2.50;99.90
2389;DHT22;1205;47.984;7.668;2023-02-15T10:09:05;2.40;99.90
2389;DHT22;1205;47.984;7.668;2023-02-15T10:17:32;2.60;99.90
2389;DHT22;1205;47.984;7.668;2023-02-15T10:20:27;2.50;99.90
2389;DHT22;1205;47.984;7.668;2023-02-15T10:26:18;2.50;99.90
2389;DHT22;1205;47.984;7.668;2023-02-15T10:28:52;2.60;99.90
2389;DHT22;1205;47.984;7.668;2023-02-15T10:34:15;2.80;99.90
2389;DHT22;1205;47.984;7.668;2023-02-15T10:37:23;2.80;99.90
2389;DHT22;1205;47.984;7.668;2023-02-15T10:40:09;2.90;99.90
2389;DHT22;1205;47.984;7.668;2023-02-15T10:45:49;3.20;99.90
2389;DHT22;1205;47.984;7.668;2023-02-15T10:51:05;3.30;99.90
2389;DHT22;1205;47.984;7.668;2023-02-15T10:59:53;3.20;99.90
2389;DHT22;1205;47.984;7.668;2023-02-15T11:02:27;3.00;99.90
2389;DHT22;1205;47.984;7.668;2023-02-15T11:05:02;3.00;99.90
2389;DHT22;1205;47.984;7.668;2023-02-15T11:07:38;3.00;99.90
2389;DHT22;1205;47.984;7.668;2023-02-15T11:12:57;3.30;99.90
2389;DHT22;1205;47.984;7.668;2023-02-15T11:15:31;3.30;99.90
2389;DHT22;1205;47.984;7.668;2023-02-15T11:18:05;3.40;99.90
2389;DHT22;1205;47.984;7.668;2023-02-15T11:20:37;3.60;99.90
2389;DHT22;1205;47.984;7.668;2023-02-15T11:23:13;3.50;99.90
2389;DHT22;1205;47.984;7.668;2023-02-15T11:25:46;3.90;99.90
2389;DHT22;1205;47.984;7.668;2023-02-15T11:28:24;3.60;99.90
2389;DHT22;1205;47.984;7.668;2023-02-15T11:30:54;3.60;99.90
2389;DHT22;1205;47.984;7.668;2023-02-15T11:33:27;3.20;99.90
2389;DHT22;1205;47.984;7.668;2023-02-15T11:38:31;4.00;99.90
2389;DHT22;1205;47.984;7.668;2023-02-15T11:41:03;4.30;99.90
2389;DHT22;1205;47.984;7.668;2023-02-15T11:43:41;4.30;99.90
2389;DHT22;1205;47.984;7.668;2023-02-15T11:46:11;4.20;99.90
2389;DHT22;1205;47.984;7.668;2023-02-15T11:48:37;4.10;99.90
2389;DHT22;1205;47.984;7.668;2023-02-15T11:51:04;4.10;99.90
2389;DHT22;1205;47.984;7.668;2023-02-15T11:53:36;4.40;99.90
2389;DHT22;1205;47.984;7.668;2023-02-15T11:56:02;4.60;99.90
2389;DHT22;1205;47.984;7.668;2023-02-15T11:59:04;4.80;99.90
2389;DHT22;1205;47.984;7.668;2023-02-15T12:01:35;4.90;99.90
2389;DHT22;1205;47.984;7.668;2023-02-15T12:06:49;5.00;99.90
2389;DHT22;1205;47.984;7.668;2023-02-15T12:09:29;5.00;99.90
2389;DHT22;1205;47.984;7.668;2023-02-15T12:12:21;5.10;99.90
2389;DHT22;1205;47.984;7.668;2023-02-15T12:15:01;5.10;99.90
2389;DHT22;1205;47.984;7.668;2023-02-15T12:17:29;5.00;99.90
2389;DHT22;1205;47.984;7.668;2023-02-15T12:19:59;5.00;99.90
2389;DHT22;1205;47.984;7.668;2023-02-15T12:22:29;4.80;99.90
2389;DHT22;1205;47.984;7.668;2023-02-15T12:25:00;4.70;99.90
2389;DHT22;1205;47.984;7.668;2023-02-15T12:27:37;4.60;99.90
2389;DHT22;1205;47.984;7.668;2023-02-15T12:30:20;4.70;99.90
2389;DHT22;1205;47.984;7.668;2023-02-15T12:32:53;4.70;99.90
2389;DHT22;1205;47.984;7.668;2023-02-15T12:35:31;4.60;99.90
2389;DHT22;1205;47.984;7.668;2023-02-15T12:40:29;4.80;99.90
2389;DHT22;1205;47.984;7.668;2023-02-15T12:42:54;4.80;99.90
2389;DHT22;1205;47.984;7.668;2023-02-15T12:45:25;4.80;99.90
2389;DHT22;1205;47.984;7.668;2023-02-15T12:48:18;4.80;99.90
2389;DHT22;1205;47.984;7.668;2023-02-15T12:50:46;4.80;99.90
2389;DHT22;1205;47.984;7.668;2023-02-15T12:53:20;4.80;99.90
2389;DHT22;1205;47.984;7.668;2023-02-15T12:55:54;4.70;99.90
2389;DHT22;1205;47.984;7.668;2023-02-15T12:58:21;4.80;99.90
2389;DHT22;1205;47.984;7.668;2023-02-15T13:03:26;4.80;99.90
2389;DHT22;1205;47.984;7.668;2023-02-15T13:05:55;4.90;99.90
2389;DHT22;1205;47.984;7.668;2023-02-15T13:08:27;4.90;99.90
2389;DHT22;1205;47.984;7.668;2023-02-15T13:11:02;4.90;99.90
2389;DHT22;1205;47.984;7.668;2023-02-15T13:13:31;5.00;99.90
2389;DHT22;1205;47.984;7.668;2023-02-15T13:16:01;5.00;99.90
2389;DHT22;1205;47.984;7.668;2023-02-15T13:18:45;5.10;99.90
2389;DHT22;1205;47.984;7.668;2023-02-15T13:23:38;5.30;99.90
2389;DHT22;1205;47.984;7.668;2023-02-15T13:26:05;5.50;99.90
2389;DHT22;1205;47.984;7.668;2023-02-15T13:28:50;5.50;99.90
2389;DHT22;1205;47.984;7.668;2023-02-15T13:31:23;5.60;99.90
2389;DHT22;1205;47.984;7.668;2023-02-15T13:34:00;5.60;99.90
2389;DHT22;1205;47.984;7.668;2023-02-15T13:36:37;5.70;99.90
2389;DHT22;1205;47.984;7.668;2023-02-15T13:41:48;5.80;99.90
2389;DHT22;1205;47.984;7.668;2023-02-15T13:52:24;6.20;99.90
2389;DHT22;1205;47.984;7.668;2023-02-15T14:03:31;6.60;99.90
2389;DHT22;1205;47.984;7.668;2023-02-15T14:06:14;6.80;99.90
2389;DHT22;1205;47.984;7.668;2023-02-15T14:14:23;7.00;99.90
2389;DHT22;1205;47.984;7.668;2023-02-15T14:22:31;7.30;99.90
2389;DHT22;1205;47.984;7.668;2023-02-15T14:28:06;7.50;99.90
2389;DHT22;1205;47.984;7.668;2023-02-15T14:30:36;7.50;99.90
2389;DHT22;1205;47.984;7.668;2023-02-15T14:33:25;7.60;99.90
2389;DHT22;1205;47.984;7.668;2023-02-15T14:35:54;7.60;99.90
2389;DHT22;1205;47.984;7.668;2023-02-15T14:41:41;7.60;99.90
2389;DHT22;1205;47.984;7.668;2023-02-15T14:44:19;7.70;99.90
2389;DHT22;1205;47.984;7.668;2023-02-15T14:46:59;7.70;99.90
2389;DHT22;1205;47.984;7.668;2023-02-15T14:49:31;7.70;99.90
2389;DHT22;1205;47.984;7.668;2023-02-15T15:04:55;7.80;99.90
2389;DHT22;1205;47.984;7.668;2023-02-15T15:10:05;8.40;99.90
2389;DHT22;1205;47.984;7.668;2023-02-15T15:12:48;8.10;99.90
2389;DHT22;1205;47.984;7.668;2023-02-15T15:25:50;7.70;99.90
2389;DHT22;1205;47.984;7.668;2023-02-15T15:31:08;7.70;99.90
2389;DHT22;1205;47.984;7.668;2023-02-15T15:37:06;7.60;99.90
2389;DHT22;1205;47.984;7.668;2023-02-15T15:42:39;7.60;99.90
2389;DHT22;1205;47.984;7.668;2023-02-15T15:45:36;7.60;99.90
2389;DHT22;1205;47.984;7.668;2023-02-15T15:48:27;7.50;99.90
2389;DHT22;1205;47.984;7.668;2023-02-15T15:50:57;7.60;99.90
2389;DHT22;1205;47.984;7.668;2023-02-15T15:53:26;7.50;99.90
2389;DHT22;1205;47.984;7.668;2023-02-15T15:55:57;7.50;99.90
2389;DHT22;1205;47.984;7.668;2023-02-15T15:58:24;7.50;99.90
2389;DHT22;1205;47.984;7.668;2023-02-15T16:00:54;7.50;99.90
2389;DHT22;1205;47.984;7.668;2023-02-15T16:03:23;7.50;99.90
2389;DHT22;1205;47.984;7.668;2023-02-15T16:05:49;7.30;99.90
2389;DHT22;1205;47.984;7.668;2023-02-15T16:08:37;7.30;99.90
2389;DHT22;1205;47.984;7.668;2023-02-15T16:11:24;7.30;99.90
2389;DHT22;1205;47.984;7.668;2023-02-15T16:13:51;7.30;99.90
2389;DHT22;1205;47.984;7.668;2023-02-15T16:16:23;7.20;99.90
2389;DHT22;1205;47.984;7.668;2023-02-15T16:18:50;7.20;99.90
2389;DHT22;1205;47.984;7.668;2023-02-15T16:21:21;7.10;99.90
2389;DHT22;1205;47.984;7.668;2023-02-15T16:26:54;7.00;99.90
2389;DHT22;1205;47.984;7.668;2023-02-15T16:29:29;6.90;99.90
2389;DHT22;1205;47.984;7.668;2023-02-15T16:31:59;6.80;99.90
2389;DHT22;1205;47.984;7.668;2023-02-15T16:34:25;6.70;99.90
2389;DHT22;1205;47.984;7.668;2023-02-15T16:37:15;6.60;99.90
2389;DHT22;1205;47.984;7.668;2023-02-15T16:39:42;6.50;99.90
2389;DHT22;1205;47.984;7.668;2023-02-15T16:42:11;6.50;99.90
2389;DHT22;1205;47.984;7.668;2023-02-15T16:44:37;6.40;99.90
2389;DHT22;1205;47.984;7.668;2023-02-15T16:47:02;6.40;99.90
2389;DHT22;1205;47.984;7.668;2023-02-15T16:49:29;6.30;99.90
2389;DHT22;1205;47.984;7.668;2023-02-15T16:51:59;6.20;99.90
2389;DHT22;1205;47.984;7.668;2023-02-15T16:54:25;6.10;99.90
2389;DHT22;1205;47.984;7.668;2023-02-15T16:56:52;6.00;99.90
2389;DHT22;1205;47.984;7.668;2023-02-15T16:59:39;6.00;99.90
2389;DHT22;1205;47.984;7.668;2023-02-15T17:02:18;5.90;99.90
2389;DHT22;1205;47.984;7.668;2023-02-15T17:04:44;5.80;99.90
2389;DHT22;1205;47.984;7.668;2023-02-15T17:07:19;5.70;99.90
2389;DHT22;1205;47.984;7.668;2023-02-15T17:09:56;5.70;99.90
2389;DHT22;1205;47.984;7.668;2023-02-15T17:12:47;5.80;99.90
2389;DHT22;1205;47.984;7.668;2023-02-15T17:15:37;5.60;99.90
2389;DHT22;1205;47.984;7.668;2023-02-15T17:18:04;5.50;99.90
2389;DHT22;1205;47.984;7.668;2023-02-15T17:20:31;5.40;99.90
2389;DHT22;1205;47.984;7.668;2023-02-15T17:22:57;5.30;99.90
2389;DHT22;1205;47.984;7.668;2023-02-15T17:25:37;5.20;99.90
2389;DHT22;1205;47.984;7.668;2023-02-15T17:28:04;5.10;99.90
2389;DHT22;1205;47.984;7.668;2023-02-15T17:30:33;5.00;99.90
2389;DHT22;1205;47.984;7.668;2023-02-15T17:33:03;4.90;99.90
2389;DHT22;1205;47.984;7.668;2023-02-15T17:35:31;4.80;99.90
2389;DHT22;1205;47.984;7.668;2023-02-15T17:38:17;4.80;99.90
2389;DHT22;1205;47.984;7.668;2023-02-15T17:40:43;4.80;99.90
2389;DHT22;1205;47.984;7.668;2023-02-15T17:43:09;4.80;99.90
2389;DHT22;1205;47.984;7.668;2023-02-15T17:45:54;4.80;99.90
2389;DHT22;1205;47.984;7.668;2023-02-15T17:48:22;4.80;99.90
2389;DHT22;1205;47.984;7.668;2023-02-15T17:50:49;4.80;99.90
2389;DHT22;1205;47.984;7.668;2023-02-15T17:53:16;4.90;99.90
2389;DHT22;1205;47.984;7.668;2023-02-15T17:55:43;4.90;99.90
2389;DHT22;1205;47.984;7.668;2023-02-15T17:58:14;4.80;99.90
2389;DHT22;1205;47.984;7.668;2023-02-15T18:00:43;4.80;99.90
2389;DHT22;1205;47.984;7.668;2023-02-15T18:06:44;4.80;99.90
2389;DHT22;1205;47.984;7.668;2023-02-15T18:09:29;4.70;99.90
2389;DHT22;1205;47.984;7.668;2023-02-15T18:12:21;4.60;99.90
2389;DHT22;1205;47.984;7.668;2023-02-15T18:14:48;4.40;99.90
2389;DHT22;1205;47.984;7.668;2023-02-15T18:17:15;4.30;99.90
2389;DHT22;1205;47.984;7.668;2023-02-15T18:19:42;4.20;99.90
2389;DHT22;1205;47.984;7.668;2023-02-15T18:22:12;4.20;99.90
2389;DHT22;1205;47.984;7.668;2023-02-15T18:24:38;4.10;99.90
2389;DHT22;1205;47.984;7.668;2023-02-15T18:27:04;4.10;99.90
2389;DHT22;1205;47.984;7.668;2023-02-15T18:29:30;4.00;99.90
2389;DHT22;1205;47.984;7.668;2023-02-15T18:31:57;4.00;99.90
2389;DHT22;1205;47.984;7.668;2023-02-15T18:34:35;3.80;99.90
2389;DHT22;1205;47.984;7.668;2023-02-15T18:37:03;3.70;99.90
2389;DHT22;1205;47.984;7.668;2023-02-15T18:39:40;3.60;99.90
2389;DHT22;1205;47.984;7.668;2023-02-15T18:42:29;3.60;99.90
2389;DHT22;1205;47.984;7.668;2023-02-15T18:44:58;3.50;99.90
2389;DHT22;1205;47.984;7.668;2023-02-15T18:47:24;3.50;99.90
2389;DHT22;1205;47.984;7.668;2023-02-15T18:49:50;3.50;99.90
2389;DHT22;1205;47.984;7.668;2023-02-15T18:52:20;3.50;99.90
2389;DHT22;1205;47.984;7.668;2023-02-15T18:54:47;3.50;99.90
2389;DHT22;1205;47.984;7.668;2023-02-15T18:57:14;3.50;99.90
2389;DHT22;1205;47.984;7.668;2023-02-15T18:59:40;3.50;99.90
2389;DHT22;1205;47.984;7.668;2023-02-15T19:02:16;3.50;99.90
2389;DHT22;1205;47.984;7.668;2023-02-15T19:04:43;3.50;99.90
2389;DHT22;1205;47.984;7.668;2023-02-15T19:07:16;3.40;99.90
2389;DHT22;1205;47.984;7.668;2023-02-15T19:09:46;3.40;99.90
2389;DHT22;1205;47.984;7.668;2023-02-15T19:12:14;3.40;99.90
2389;DHT22;1205;47.984;7.668;2023-02-15T19:14:39;3.30;99.90
2389;DHT22;1205;47.984;7.668;2023-02-15T19:17:17;3.30;99.90
2389;DHT22;1205;47.984;7.668;2023-02-15T19:19:43;3.30;99.90
2389;DHT22;1205;47.984;7.668;2023-02-15T19:22:18;3.30;99.90
2389;DHT22;1205;47.984;7.668;2023-02-15T19:24:47;3.20;99.90